Copper Mountain, CO

1:18 PM MST on January 25, 2015 (GMT -0700)
Meadow Creek | Change Station
CLOSE
Current Station
Personal Weather Station
Location: Frisco, CO
Elevation: 9094 ft
Nearby Weather Stations

Elev 9094 ft 39.58 °N, 106.10 °W | Updated 8 seconds ago

Partly Cloudy
Partly Cloudy
37.2 °F
Feels Like 37 °F
N
0.0
Wind Variable Wind from SW
Gusts 8.0 mph

Today
High -- | Low -- °F
--% Chance of Precip.
Yesterday
High -- | Low -- °F
Precip. -- in
7:17 AM 5:15 PM
Waxing Crescent, 35% visible
Pressure 30.15 in
Visibility 10.0 miles
Clouds Few 3100 ft
Windchill 37 °F
Dew Point 26 °F
Humidity 65%
Rainfall 0.00 in
Snow Depth Not available.
UV 4 out of 12
Pollen 2.00 out of 12
Air Quality Not available.
Flu Activity Not available.
METAR KLXV 251953Z AUTO 32010G18KT 10SM FEW031 02/M07 A3032 RMK AO2 SLP209 T00221067

More Conditions Fewer Conditions

Pressure 30.15 in
Visibility 10.0 miles
Clouds Few 3100 ft
Windchill 37 °F
Dew Point 26 °F
Humidity 65%
Rainfall 0.00 in
Snow Depth Not available.
UV 4 out of 12
Pollen 2.00 out of 12
Air Quality Not available.
Flu Activity Not available.
METAR KLXV 251953Z AUTO 32010G18KT 10SM FEW031 02/M07 A3032 RMK AO2 SLP209 T00221067

More Conditions Fewer Conditions

10-Day Weather Forecast

Almanac

Astronomy

Jan. 25, 2015 Rise Set
Actual Time
Civil Twilight
Nautical Twilight
Astronomical Twilight
Moon
Length of Visible Light
Length of Day
Tomorrow will be .
, % of the Moon is Illuminated

Today's Extremes

State Highs State Lows

Community

WunderPhotos

Upload Photos

1,790,035 photos uploaded!

WunderBlogs® & News

Nearby

Air Quality

  Air Quality AQ Index Pollutant
Not available.

Snow Depth

Station Depth Elevation

Earthquake Activity

City Distance Mag. Time & Date
Minimum magnitude displayed is 2.5.

Coastal Water Temperatures

Place Temperature

Nearby Weather Stations